createdAt,value
2022-10-15T00:01:32.987Z,14.25
2022-10-15T00:04:37.787Z,12.63
2022-10-15T00:07:44.285Z,11.63
2022-10-15T00:10:49.752Z,14.80
2022-10-15T00:13:55.668Z,14.87
2022-10-15T00:17:01.946Z,12.80
2022-10-15T00:20:09.480Z,16.32
2022-10-15T00:23:14.929Z,10.63
2022-10-15T00:26:32.765Z,18.42
2022-10-15T00:29:39.498Z,12.93
2022-10-15T00:32:38.309Z,13.53
2022-10-15T00:35:43.375Z,13.35
2022-10-15T00:38:48.297Z,14.28
2022-10-15T00:41:59.419Z,16.27
2022-10-15T00:45:11.276Z,16.55
2022-10-15T00:48:17.167Z,10.00
2022-10-15T00:51:24.082Z,12.00
2022-10-15T00:54:23.353Z,12.73
2022-10-15T00:57:29.076Z,13.75
2022-10-15T01:00:35.299Z,11.43
2022-10-15T01:03:42.770Z,10.75
2022-10-15T01:06:49.321Z,11.65
2022-10-15T01:09:55.021Z,12.07
2022-10-15T01:13:42.331Z,13.98
2022-10-15T01:17:06.985Z,16.30
2022-10-15T01:21:01.079Z,11.25
2022-10-15T01:24:35.738Z,15.23
2022-10-15T01:27:55.151Z,12.93
2022-10-15T01:31:21.743Z,11.80
2022-10-15T01:34:40.631Z,17.12
2022-10-15T01:38:09.270Z,20.27
2022-10-15T01:41:19.694Z,15.20
2022-10-15T01:44:39.289Z,14.58
2022-10-15T01:48:02.903Z,11.63
2022-10-15T01:51:10.045Z,13.15
2022-10-15T01:54:15.865Z,9.93
2022-10-15T01:57:23.048Z,19.20
2022-10-15T02:00:28.962Z,12.37
2022-10-15T02:03:34.504Z,20.32
2022-10-15T02:06:49.497Z,21.85
2022-10-15T02:10:09.741Z,20.55
2022-10-15T02:13:28.086Z,14.95
2022-10-15T02:17:01.409Z,13.15
2022-10-15T02:20:27.193Z,18.95
2022-10-15T02:23:38.873Z,20.45
2022-10-15T02:26:45.139Z,16.27
2022-10-15T02:29:51.452Z,15.70
2022-10-15T02:33:00.529Z,12.03
2022-10-15T02:36:05.167Z,13.68
2022-10-15T02:39:11.733Z,14.85
2022-10-15T02:42:17.772Z,15.48
2022-10-15T02:45:24.183Z,22.27
2022-10-15T02:48:31.081Z,13.95
2022-10-15T02:51:36.017Z,15.23
2022-10-15T02:54:41.493Z,24.85
2022-10-15T02:57:48.720Z,14.50
2022-10-15T03:00:53.412Z,16.15
2022-10-15T03:04:00.864Z,13.75
2022-10-15T03:07:08.228Z,14.95
2022-10-15T03:10:14.773Z,13.72
2022-10-15T03:13:21.390Z,15.03
2022-10-15T03:16:27.977Z,17.12
2022-10-15T03:19:34.668Z,14.35
2022-10-15T03:22:40.837Z,15.43
2022-10-15T03:25:47.603Z,16.40
2022-10-15T03:28:52.867Z,14.28
2022-10-15T03:32:07.108Z,12.25
2022-10-15T03:35:12.885Z,16.15
2022-10-15T03:38:18.709Z,12.05
2022-10-15T03:41:25.234Z,17.07
2022-10-15T03:44:29.886Z,14.43
2022-10-15T03:47:41.041Z,16.27
2022-10-15T03:50:45.923Z,16.93
2022-10-15T03:53:51.670Z,12.05
2022-10-15T03:56:50.780Z,16.80
2022-10-15T03:59:59.206Z,10.93
2022-10-15T04:03:06.766Z,14.68
2022-10-15T04:06:13.592Z,13.45
2022-10-15T04:09:20.363Z,14.03
2022-10-15T04:12:28.629Z,18.57
2022-10-15T04:15:35.119Z,14.63
2022-10-15T04:18:42.718Z,11.50
2022-10-15T04:21:48.571Z,12.88
2022-10-15T04:24:56.589Z,17.80
2022-10-15T04:27:55.988Z,15.50
2022-10-15T04:31:02.754Z,16.48
2022-10-15T04:34:08.825Z,13.70
2022-10-15T04:37:13.604Z,14.98
2022-10-15T04:40:19.473Z,13.55
2022-10-15T04:43:25.015Z,14.33
2022-10-15T04:46:33.204Z,14.80
2022-10-15T04:49:43.082Z,13.93
2022-10-15T04:53:07.209Z,18.37
2022-10-15T04:56:23.845Z,13.60
2022-10-15T04:59:29.560Z,14.25
2022-10-15T05:02:57.452Z,12.95
2022-10-15T05:06:05.715Z,12.53
2022-10-15T05:09:14.674Z,13.08
2022-10-15T05:12:22.480Z,14.45
2022-10-15T05:15:30.746Z,12.80
2022-10-15T05:18:38.355Z,15.50
2022-10-15T05:21:44.739Z,9.78
2022-10-15T05:24:53.188Z,13.18
2022-10-15T05:28:03.191Z,7.60
2022-10-15T05:31:10.986Z,10.72
2022-10-15T05:34:22.133Z,15.93
2022-10-15T05:37:38.844Z,12.85
2022-10-15T05:40:45.617Z,10.85
2022-10-15T05:43:53.760Z,18.02
2022-10-15T05:47:01.788Z,12.43
2022-10-15T05:50:11.025Z,11.35
2022-10-15T05:53:18.658Z,20.50
2022-10-15T05:56:28.278Z,11.25
2022-10-15T05:59:34.746Z,13.00
2022-10-15T06:02:41.882Z,11.57
2022-10-15T06:05:47.953Z,11.90
2022-10-15T06:08:54.220Z,12.35
2022-10-15T06:12:01.120Z,15.55
2022-10-15T06:15:07.124Z,11.33
2022-10-15T06:18:12.693Z,12.10
2022-10-15T06:21:20.574Z,10.38
2022-10-15T06:24:26.287Z,7.10
2022-10-15T06:27:44.494Z,12.95
2022-10-15T06:30:52.143Z,10.50
2022-10-15T06:34:01.445Z,14.43
2022-10-15T06:37:07.371Z,11.88
2022-10-15T06:40:13.289Z,9.53
2022-10-15T06:43:21.961Z,12.40
2022-10-15T06:46:28.093Z,8.03
2022-10-15T06:49:34.568Z,7.25
2022-10-15T06:52:41.420Z,10.70
2022-10-15T06:55:46.801Z,12.20
2022-10-15T06:58:52.511Z,10.30
2022-10-15T07:01:58.084Z,8.13
2022-10-15T07:05:04.240Z,8.43
2022-10-15T07:08:11.025Z,14.93
2022-10-15T07:11:22.370Z,14.47
2022-10-15T07:14:28.324Z,13.40
2022-10-15T07:17:35.163Z,13.90
2022-10-15T07:20:41.654Z,21.10
2022-10-15T07:23:48.398Z,14.15
2022-10-15T07:26:54.710Z,12.05
2022-10-15T07:30:01.226Z,11.95
2022-10-15T07:33:07.416Z,18.50
2022-10-15T07:36:16.865Z,7.33
2022-10-15T07:39:26.271Z,15.88
2022-10-15T07:42:32.353Z,16.32
2022-10-15T07:45:38.075Z,12.10
2022-10-15T07:48:44.078Z,10.72
2022-10-15T07:51:49.922Z,6.55
2022-10-15T07:54:55.825Z,12.60
2022-10-15T07:58:03.002Z,8.83
2022-10-15T08:01:09.617Z,13.43
2022-10-15T08:04:15.481Z,14.07
2022-10-15T08:07:20.977Z,6.47
2022-10-15T08:10:28.130Z,8.68
2022-10-15T08:13:27.895Z,10.58
2022-10-15T08:16:22.276Z,8.00
2022-10-15T08:19:23.854Z,2.98
2022-10-15T08:22:29.512Z,2.60
2022-10-15T08:25:35.006Z,5.30
2022-10-15T08:28:41.236Z,6.00
2022-10-15T08:31:47.036Z,5.53
2022-10-15T08:34:54.991Z,6.30
2022-10-15T08:38:03.069Z,5.20
2022-10-15T08:41:13.508Z,2.83
2022-10-15T08:44:19.812Z,6.50
2022-10-15T08:47:39.537Z,4.15
2022-10-15T08:51:18.038Z,8.65
2022-10-15T08:54:28.516Z,5.00
2022-10-15T08:57:42.114Z,4.28
2022-10-15T09:01:07.520Z,6.75
2022-10-15T09:04:50.317Z,3.80
2022-10-15T09:08:02.030Z,3.92
2022-10-15T09:11:12.126Z,4.03
2022-10-15T09:14:17.144Z,4.60
2022-10-15T09:17:39.663Z,6.50
2022-10-15T09:20:49.105Z,4.92
2022-10-15T09:23:55.176Z,2.77
2022-10-15T09:27:31.890Z,3.05
2022-10-15T09:30:52.148Z,3.45
2022-10-15T09:34:08.782Z,7.78
2022-10-15T09:37:17.444Z,8.88
2022-10-15T09:40:50.114Z,5.05
2022-10-15T09:43:57.832Z,13.05
2022-10-15T09:47:05.421Z,5.78
2022-10-15T09:50:10.994Z,8.65
2022-10-15T09:53:52.456Z,4.25
2022-10-15T09:57:08.285Z,4.10
2022-10-15T10:00:15.676Z,4.05
2022-10-15T10:03:25.865Z,6.05
2022-10-15T10:06:31.894Z,9.50
2022-10-15T10:09:54.121Z,11.43
2022-10-15T10:13:00.901Z,4.80
2022-10-15T10:16:09.231Z,8.88
2022-10-15T10:19:28.359Z,4.20
2022-10-15T10:22:34.897Z,8.48
2022-10-15T10:25:48.727Z,4.92
2022-10-15T10:29:22.168Z,3.33
2022-10-15T10:32:35.372Z,4.80
2022-10-15T10:35:44.378Z,5.75
2022-10-15T10:38:52.692Z,4.62
2022-10-15T10:42:08.707Z,7.40
2022-10-15T10:45:38.630Z,4.75
2022-10-15T10:49:05.242Z,5.65
2022-10-15T10:52:11.421Z,9.43
2022-10-15T10:55:28.244Z,10.32
2022-10-15T10:58:36.666Z,9.48
2022-10-15T11:01:41.422Z,12.15
2022-10-15T11:04:49.083Z,4.83
2022-10-15T11:08:09.982Z,5.83
2022-10-15T11:11:36.374Z,7.75
2022-10-15T11:15:01.204Z,5.85
2022-10-15T11:18:37.986Z,7.10
2022-10-15T11:22:09.204Z,4.45
2022-10-15T11:25:35.657Z,8.05
2022-10-15T11:29:07.550Z,5.30
2022-10-15T11:32:26.060Z,6.95
2022-10-15T11:35:53.257Z,9.35
2022-10-15T11:39:21.013Z,4.72
2022-10-15T11:42:42.268Z,4.22
2022-10-15T11:46:13.096Z,7.95
2022-10-15T11:49:52.307Z,7.92
2022-10-15T11:56:28.265Z,3.58
2022-10-15T12:00:00.798Z,5.60
2022-10-15T12:03:10.585Z,5.85
2022-10-15T12:06:31.189Z,9.43
2022-10-15T12:09:45.644Z,16.17
2022-10-15T12:13:21.742Z,3.70
2022-10-15T12:17:11.619Z,8.85
2022-10-15T12:20:34.917Z,5.42
2022-10-15T12:23:56.450Z,5.50
2022-10-15T12:27:01.833Z,12.95
2022-10-15T12:30:18.699Z,8.25
2022-10-15T12:36:37.683Z,8.28
2022-10-15T12:39:58.742Z,6.17
2022-10-15T12:42:54.457Z,12.60
2022-10-15T12:46:13.080Z,6.17
2022-10-15T12:49:38.894Z,6.40
2022-10-15T12:53:43.048Z,6.22
2022-10-15T12:56:54.681Z,6.05
2022-10-15T13:00:05.482Z,4.50
2022-10-15T13:03:11.831Z,9.98
2022-10-15T13:06:41.621Z,7.58
2022-10-15T13:09:49.397Z,11.15
2022-10-15T13:12:57.400Z,5.95
2022-10-15T13:16:13.842Z,5.58
2022-10-15T13:19:19.385Z,7.78
2022-10-15T13:22:43.013Z,6.30
2022-10-15T13:25:49.561Z,5.30
2022-10-15T13:28:50.662Z,5.67
2022-10-15T13:31:56.832Z,6.47
2022-10-15T13:35:04.350Z,6.62
2022-10-15T13:38:12.762Z,4.87
2022-10-15T13:41:18.564Z,4.95
2022-10-15T13:44:36.596Z,6.08
2022-10-15T13:47:47.685Z,3.90
2022-10-15T13:50:54.448Z,8.33
2022-10-15T13:53:59.666Z,6.40
2022-10-15T13:57:05.450Z,6.08
2022-10-15T14:00:12.979Z,5.65
2022-10-15T14:03:35.604Z,4.80
2022-10-15T14:06:55.973Z,5.80
2022-10-15T14:10:00.573Z,7.83
2022-10-15T14:13:06.114Z,4.05
2022-10-15T14:16:35.223Z,7.35
2022-10-15T14:19:40.246Z,6.28
2022-10-15T14:22:46.743Z,5.87
2022-10-15T14:25:52.839Z,3.55
2022-10-15T14:29:03.206Z,7.08
2022-10-15T14:32:09.201Z,4.00
2022-10-15T14:35:16.831Z,3.15
2022-10-15T14:38:26.426Z,6.08
2022-10-15T14:41:42.974Z,7.62
2022-10-15T14:45:02.871Z,14.03
2022-10-15T14:48:17.453Z,3.12
2022-10-15T14:51:31.355Z,7.37
2022-10-15T14:54:40.189Z,6.62
2022-10-15T14:57:49.609Z,7.95
2022-10-15T15:01:00.404Z,4.58
2022-10-15T15:04:10.204Z,5.70
2022-10-15T15:07:16.685Z,4.33
2022-10-15T15:10:23.791Z,7.60
2022-10-15T15:13:34.092Z,8.48
2022-10-15T15:16:39.633Z,10.50
2022-10-15T15:19:44.313Z,3.75
2022-10-15T15:22:49.746Z,11.97
2022-10-15T15:25:58.071Z,8.40
2022-10-15T15:29:04.777Z,5.83
2022-10-15T15:32:10.642Z,8.50
2022-10-15T15:35:16.468Z,7.55
2022-10-15T15:38:22.035Z,11.50
2022-10-15T15:41:36.004Z,5.97
2022-10-15T15:44:42.175Z,9.25
2022-10-15T15:47:47.754Z,10.98
2022-10-15T15:50:53.597Z,6.25
2022-10-15T15:54:00.275Z,7.50
2022-10-15T15:57:07.732Z,5.55
2022-10-15T16:00:13.425Z,5.33
2022-10-15T16:03:19.427Z,7.00
2022-10-15T16:06:26.234Z,9.80
2022-10-15T16:09:33.301Z,5.37
2022-10-15T16:12:40.801Z,10.93
2022-10-15T16:15:47.695Z,9.70
2022-10-15T16:18:53.885Z,6.22
2022-10-15T16:22:00.704Z,7.60
2022-10-15T16:25:07.458Z,3.25
2022-10-15T16:28:14.102Z,5.72
2022-10-15T16:31:41.922Z,5.87
2022-10-15T16:34:48.304Z,8.75
2022-10-15T16:37:53.882Z,6.20
2022-10-15T16:41:01.350Z,10.43
2022-10-15T16:44:07.419Z,5.78
2022-10-15T16:47:15.638Z,15.60
2022-10-15T16:50:22.903Z,4.75
2022-10-15T16:53:29.803Z,10.38
2022-10-15T16:56:40.986Z,9.05
2022-10-15T16:59:47.350Z,9.25
2022-10-15T17:02:54.873Z,7.70
2022-10-15T17:06:00.585Z,7.90
2022-10-15T17:09:12.733Z,7.87
2022-10-15T17:15:23.510Z,14.03
2022-10-15T17:18:28.855Z,9.13
2022-10-15T17:21:36.340Z,13.03
2022-10-15T17:24:41.725Z,11.25
2022-10-15T17:27:42.695Z,10.65
2022-10-15T17:30:28.942Z,20.15
2022-10-15T17:33:21.874Z,14.65
2022-10-15T17:36:26.297Z,11.08
2022-10-15T17:39:35.094Z,9.35
2022-10-15T17:42:41.349Z,7.28
2022-10-15T17:45:40.548Z,8.23
2022-10-15T17:48:47.186Z,7.58
2022-10-15T17:51:52.922Z,8.13
2022-10-15T17:54:58.675Z,13.25
2022-10-15T17:58:04.304Z,10.08
2022-10-15T18:01:12.706Z,13.13
2022-10-15T18:04:19.271Z,10.23
2022-10-15T18:07:27.113Z,8.33
2022-10-15T18:10:33.272Z,12.98
2022-10-15T18:13:39.491Z,12.88
2022-10-15T18:16:46.724Z,14.83
2022-10-15T18:19:53.357Z,13.93
2022-10-15T18:22:58.907Z,11.43
2022-10-15T18:26:06.547Z,12.30
2022-10-15T18:29:12.326Z,17.67
2022-10-15T18:32:20.157Z,14.75
2022-10-15T18:35:25.922Z,13.32
2022-10-15T18:38:32.628Z,12.28
2022-10-15T18:44:49.795Z,14.80
2022-10-15T18:47:49.580Z,10.10
2022-10-15T18:50:43.621Z,13.90
2022-10-15T18:53:50.289Z,5.87
2022-10-15T18:56:56.560Z,9.85
2022-10-15T19:00:02.974Z,10.13
2022-10-15T19:03:09.281Z,14.78
2022-10-15T19:06:15.536Z,12.07
2022-10-15T19:09:24.566Z,15.65
2022-10-15T19:12:23.802Z,10.98
2022-10-15T19:15:25.171Z,13.55
2022-10-15T19:18:31.931Z,15.30
2022-10-15T19:21:38.021Z,12.37
2022-10-15T19:24:43.448Z,21.52
2022-10-15T19:27:49.584Z,16.12
2022-10-15T19:30:56.000Z,9.95
2022-10-15T19:34:04.759Z,11.25
2022-10-15T19:37:10.909Z,13.62
2022-10-15T19:40:18.867Z,13.18
2022-10-15T19:43:25.717Z,13.13
2022-10-15T19:46:31.760Z,12.95
2022-10-15T19:49:30.076Z,16.77
2022-10-15T19:52:22.784Z,10.35
2022-10-15T19:55:28.973Z,11.78
2022-10-15T19:58:35.314Z,14.85
2022-10-15T20:01:35.315Z,14.90
2022-10-15T20:04:22.044Z,15.50
2022-10-15T20:07:14.131Z,11.08
2022-10-15T20:10:06.402Z,11.08
2022-10-15T20:13:11.805Z,9.53
2022-10-15T20:16:24.841Z,11.85
2022-10-15T20:19:34.524Z,9.85
2022-10-15T20:22:40.910Z,15.53
2022-10-15T20:25:47.305Z,9.15
2022-10-15T20:28:58.894Z,17.30
2022-10-15T20:32:11.041Z,13.15
2022-10-15T20:35:10.875Z,11.65
2022-10-15T20:38:16.865Z,14.47
2022-10-15T20:41:28.666Z,10.95
2022-10-15T20:44:34.143Z,12.20
2022-10-15T20:47:39.574Z,15.70
2022-10-15T20:50:48.600Z,13.28
2022-10-15T20:53:54.953Z,10.58
2022-10-15T20:57:01.299Z,11.03
2022-10-15T21:00:06.890Z,10.70
2022-10-15T21:03:06.939Z,12.40
2022-10-15T21:06:14.862Z,9.70
2022-10-15T21:09:22.426Z,11.20
2022-10-15T21:12:28.512Z,11.38
2022-10-15T21:15:34.796Z,12.85
2022-10-15T21:18:41.750Z,9.70
2022-10-15T21:21:48.183Z,14.65
2022-10-15T21:24:54.763Z,9.50
2022-10-15T21:28:01.463Z,14.20
2022-10-15T21:31:07.983Z,14.55
2022-10-15T21:34:13.708Z,12.10
2022-10-15T21:37:20.153Z,12.05
2022-10-15T21:40:26.992Z,13.53
2022-10-15T21:43:33.151Z,12.60
2022-10-15T21:46:38.093Z,17.87
2022-10-15T21:49:43.407Z,11.80
2022-10-15T21:52:48.816Z,16.62
2022-10-15T21:55:54.336Z,17.50
2022-10-15T21:59:01.703Z,9.83
2022-10-15T22:02:07.616Z,12.28
2022-10-15T22:05:13.244Z,14.83
2022-10-15T22:08:19.558Z,10.68
2022-10-15T22:11:37.164Z,10.68
2022-10-15T22:14:43.683Z,10.18
2022-10-15T22:17:50.031Z,12.28
2022-10-15T22:20:55.951Z,16.50
2022-10-15T22:24:06.463Z,15.23
2022-10-15T22:27:12.640Z,15.90
2022-10-15T22:30:19.881Z,10.70
2022-10-15T22:33:25.776Z,17.65
2022-10-15T22:36:39.382Z,10.55
2022-10-15T22:39:46.437Z,11.22
2022-10-15T22:42:55.516Z,17.37
2022-10-15T22:46:01.167Z,13.30
2022-10-15T22:49:06.857Z,11.10
2022-10-15T22:52:14.003Z,13.48
2022-10-15T22:55:13.495Z,11.88
2022-10-15T22:57:59.772Z,11.38
2022-10-15T23:00:51.735Z,11.12
2022-10-15T23:03:45.370Z,12.78
2022-10-15T23:06:44.634Z,12.35
2022-10-15T23:09:51.252Z,17.55
2022-10-15T23:12:57.298Z,17.62
2022-10-15T23:16:02.615Z,13.90
2022-10-15T23:19:12.308Z,14.60
2022-10-15T23:22:18.969Z,14.33
2022-10-15T23:25:25.189Z,15.35
2022-10-15T23:28:32.018Z,14.20
2022-10-15T23:31:39.704Z,11.70
2022-10-15T23:34:45.341Z,13.22
2022-10-15T23:37:56.398Z,11.03
2022-10-15T23:41:02.587Z,15.78
2022-10-15T23:44:09.279Z,14.13
2022-10-15T23:47:15.416Z,19.25
2022-10-15T23:50:21.827Z,17.60
2022-10-15T23:53:27.726Z,11.05
2022-10-15T23:56:26.835Z,16.97
2022-10-15T23:59:33.096Z,24.98
